sensor_id;sensor_type;location;lat;lon;timestamp;temperature;humidity
19437;DHT22;9854;50.968;4.168;2023-04-22T00:00:09;10.20;99.90
19437;DHT22;9854;50.968;4.168;2023-04-22T00:02:36;10.20;99.90
19437;DHT22;9854;50.968;4.168;2023-04-22T00:05:04;10.30;99.90
19437;DHT22;9854;50.968;4.168;2023-04-22T00:07:30;10.20;99.90
19437;DHT22;9854;50.968;4.168;2023-04-22T00:09:56;10.10;99.90
19437;DHT22;9854;50.968;4.168;2023-04-22T00:12:21;10.10;99.90
19437;DHT22;9854;50.968;4.168;2023-04-22T00:14:47;10.10;99.90
19437;DHT22;9854;50.968;4.168;2023-04-22T00:17:13;10.20;99.90
19437;DHT22;9854;50.968;4.168;2023-04-22T00:19:39;10.20;99.90
19437;DHT22;9854;50.968;4.168;2023-04-22T00:22:05;10.50;99.90
19437;DHT22;9854;50.968;4.168;2023-04-22T00:24:30;10.40;99.90
19437;DHT22;9854;50.968;4.168;2023-04-22T00:26:57;10.30;99.90
19437;DHT22;9854;50.968;4.168;2023-04-22T00:29:24;10.20;99.90
19437;DHT22;9854;50.968;4.168;2023-04-22T00:31:50;10.20;99.90
19437;DHT22;9854;50.968;4.168;2023-04-22T00:34:16;10.20;99.90
19437;DHT22;9854;50.968;4.168;2023-04-22T00:36:44;10.20;99.90
19437;DHT22;9854;50.968;4.168;2023-04-22T00:39:11;10.10;99.90
19437;DHT22;9854;50.968;4.168;2023-04-22T00:41:38;10.10;99.90
19437;DHT22;9854;50.968;4.168;2023-04-22T00:44:08;10.10;99.90
19437;DHT22;9854;50.968;4.168;2023-04-22T00:46:34;10.30;99.90
19437;DHT22;9854;50.968;4.168;2023-04-22T00:49:01;10.40;99.90
19437;DHT22;9854;50.968;4.168;2023-04-22T00:51:27;10.40;99.90
19437;DHT22;9854;50.968;4.168;2023-04-22T00:53:52;10.40;99.90
19437;DHT22;9854;50.968;4.168;2023-04-22T00:56:19;10.30;99.90
19437;DHT22;9854;50.968;4.168;2023-04-22T00:58:46;10.50;99.90
19437;DHT22;9854;50.968;4.168;2023-04-22T01:01:12;10.70;99.90
19437;DHT22;9854;50.968;4.168;2023-04-22T01:03:39;10.40;99.90
19437;DHT22;9854;50.968;4.168;2023-04-22T01:06:05;10.10;99.90
19437;DHT22;9854;50.968;4.168;2023-04-22T01:08:31;10.00;99.90
19437;DHT22;9854;50.968;4.168;2023-04-22T01:10:57;10.00;99.90
19437;DHT22;9854;50.968;4.168;2023-04-22T01:13:23;10.10;99.90
19437;DHT22;9854;50.968;4.168;2023-04-22T01:15:50;10.10;99.90
19437;DHT22;9854;50.968;4.168;2023-04-22T01:18:16;10.10;99.90
19437;DHT22;9854;50.968;4.168;2023-04-22T01:20:41;10.00;99.90
19437;DHT22;9854;50.968;4.168;2023-04-22T01:23:17;9.90;99.90
19437;DHT22;9854;50.968;4.168;2023-04-22T01:25:43;9.70;99.90
19437;DHT22;9854;50.968;4.168;2023-04-22T01:28:10;9.70;99.90
19437;DHT22;9854;50.968;4.168;2023-04-22T01:30:36;9.70;99.90
19437;DHT22;9854;50.968;4.168;2023-04-22T01:33:03;9.70;99.90
19437;DHT22;9854;50.968;4.168;2023-04-22T01:35:28;9.70;99.90
19437;DHT22;9854;50.968;4.168;2023-04-22T01:38:04;9.60;99.90
19437;DHT22;9854;50.968;4.168;2023-04-22T01:40:31;9.60;99.90
19437;DHT22;9854;50.968;4.168;2023-04-22T01:42:58;9.80;99.90
19437;DHT22;9854;50.968;4.168;2023-04-22T01:45:25;9.90;99.90
19437;DHT22;9854;50.968;4.168;2023-04-22T01:47:51;9.90;99.90
19437;DHT22;9854;50.968;4.168;2023-04-22T01:50:17;9.80;99.90
19437;DHT22;9854;50.968;4.168;2023-04-22T01:52:42;9.70;99.90
19437;DHT22;9854;50.968;4.168;2023-04-22T01:55:09;9.70;99.90
19437;DHT22;9854;50.968;4.168;2023-04-22T01:57:34;9.60;99.90
19437;DHT22;9854;50.968;4.168;2023-04-22T02:00:00;9.80;99.90
19437;DHT22;9854;50.968;4.168;2023-04-22T02:02:26;9.90;99.90
19437;DHT22;9854;50.968;4.168;2023-04-22T02:04:52;9.80;99.90
19437;DHT22;9854;50.968;4.168;2023-04-22T02:07:17;9.80;99.90
19437;DHT22;9854;50.968;4.168;2023-04-22T02:09:43;9.70;99.90
19437;DHT22;9854;50.968;4.168;2023-04-22T02:12:09;9.70;99.90
19437;DHT22;9854;50.968;4.168;2023-04-22T02:14:34;9.70;99.90
19437;DHT22;9854;50.968;4.168;2023-04-22T02:17:00;9.70;99.90
19437;DHT22;9854;50.968;4.168;2023-04-22T02:19:29;9.90;99.90
19437;DHT22;9854;50.968;4.168;2023-04-22T02:21:55;10.20;99.90
19437;DHT22;9854;50.968;4.168;2023-04-22T02:24:20;10.30;99.90
19437;DHT22;9854;50.968;4.168;2023-04-22T02:26:46;10.30;99.90
19437;DHT22;9854;50.968;4.168;2023-04-22T02:29:13;10.40;99.90
19437;DHT22;9854;50.968;4.168;2023-04-22T02:31:39;10.50;99.90
19437;DHT22;9854;50.968;4.168;2023-04-22T02:34:04;10.60;99.90
19437;DHT22;9854;50.968;4.168;2023-04-22T02:36:30;10.50;99.90
19437;DHT22;9854;50.968;4.168;2023-04-22T02:38:57;10.30;99.90
19437;DHT22;9854;50.968;4.168;2023-04-22T02:41:23;10.50;99.90
19437;DHT22;9854;50.968;4.168;2023-04-22T02:43:48;10.20;99.90
19437;DHT22;9854;50.968;4.168;2023-04-22T02:46:14;10.10;99.90
19437;DHT22;9854;50.968;4.168;2023-04-22T02:48:43;10.00;99.90
19437;DHT22;9854;50.968;4.168;2023-04-22T02:51:09;9.80;99.90
19437;DHT22;9854;50.968;4.168;2023-04-22T02:53:34;9.80;99.90
19437;DHT22;9854;50.968;4.168;2023-04-22T02:56:00;9.60;99.90
19437;DHT22;9854;50.968;4.168;2023-04-22T02:58:27;9.60;99.90
19437;DHT22;9854;50.968;4.168;2023-04-22T03:00:53;9.80;99.90
19437;DHT22;9854;50.968;4.168;2023-04-22T03:03:21;9.70;99.90
19437;DHT22;9854;50.968;4.168;2023-04-22T03:05:46;9.60;99.90
19437;DHT22;9854;50.968;4.168;2023-04-22T03:08:12;9.60;99.90
19437;DHT22;9854;50.968;4.168;2023-04-22T03:10:37;9.70;99.90
19437;DHT22;9854;50.968;4.168;2023-04-22T03:13:03;9.70;99.90
19437;DHT22;9854;50.968;4.168;2023-04-22T03:15:29;9.70;99.90
19437;DHT22;9854;50.968;4.168;2023-04-22T03:17:55;9.70;99.90
19437;DHT22;9854;50.968;4.168;2023-04-22T03:20:20;9.70;99.90
19437;DHT22;9854;50.968;4.168;2023-04-22T03:22:46;9.70;99.90
19437;DHT22;9854;50.968;4.168;2023-04-22T03:25:12;9.70;99.90
19437;DHT22;9854;50.968;4.168;2023-04-22T03:27:37;9.60;99.90
19437;DHT22;9854;50.968;4.168;2023-04-22T03:30:04;9.50;99.90
19437;DHT22;9854;50.968;4.168;2023-04-22T03:32:30;9.50;99.90
19437;DHT22;9854;50.968;4.168;2023-04-22T03:34:55;9.50;99.90
19437;DHT22;9854;50.968;4.168;2023-04-22T03:37:21;9.60;99.90
19437;DHT22;9854;50.968;4.168;2023-04-22T03:39:47;9.60;99.90
19437;DHT22;9854;50.968;4.168;2023-04-22T03:42:13;9.60;99.90
19437;DHT22;9854;50.968;4.168;2023-04-22T03:44:39;9.70;99.90
19437;DHT22;9854;50.968;4.168;2023-04-22T03:47:04;9.70;99.90
19437;DHT22;9854;50.968;4.168;2023-04-22T03:49:31;9.70;99.90
19437;DHT22;9854;50.968;4.168;2023-04-22T03:51:56;9.60;99.90
19437;DHT22;9854;50.968;4.168;2023-04-22T03:54:23;9.70;99.90
19437;DHT22;9854;50.968;4.168;2023-04-22T03:56:49;9.70;99.90
19437;DHT22;9854;50.968;4.168;2023-04-22T03:59:14;9.80;99.90
19437;DHT22;9854;50.968;4.168;2023-04-22T04:01:40;9.80;99.90
19437;DHT22;9854;50.968;4.168;2023-04-22T04:04:05;9.70;99.90
19437;DHT22;9854;50.968;4.168;2023-04-22T04:06:31;9.80;99.90
19437;DHT22;9854;50.968;4.168;2023-04-22T04:08:57;9.80;99.90
19437;DHT22;9854;50.968;4.168;2023-04-22T04:11:23;9.90;99.90
19437;DHT22;9854;50.968;4.168;2023-04-22T04:13:49;9.80;99.90
19437;DHT22;9854;50.968;4.168;2023-04-22T04:16:15;9.80;99.90
19437;DHT22;9854;50.968;4.168;2023-04-22T04:18:41;9.80;99.90
19437;DHT22;9854;50.968;4.168;2023-04-22T04:21:07;9.90;99.90
19437;DHT22;9854;50.968;4.168;2023-04-22T04:23:32;9.80;99.90
19437;DHT22;9854;50.968;4.168;2023-04-22T04:25:58;9.80;99.90
19437;DHT22;9854;50.968;4.168;2023-04-22T04:28:27;9.70;99.90
19437;DHT22;9854;50.968;4.168;2023-04-22T04:30:56;9.60;99.90
19437;DHT22;9854;50.968;4.168;2023-04-22T04:33:22;9.60;99.90
19437;DHT22;9854;50.968;4.168;2023-04-22T04:35:48;9.70;99.90
19437;DHT22;9854;50.968;4.168;2023-04-22T04:38:13;9.60;99.90
19437;DHT22;9854;50.968;4.168;2023-04-22T04:40:39;9.60;99.90
19437;DHT22;9854;50.968;4.168;2023-04-22T04:43:05;9.70;99.90
19437;DHT22;9854;50.968;4.168;2023-04-22T04:45:33;9.60;99.90
19437;DHT22;9854;50.968;4.168;2023-04-22T04:48:01;9.80;99.90
19437;DHT22;9854;50.968;4.168;2023-04-22T04:50:27;9.80;99.90
19437;DHT22;9854;50.968;4.168;2023-04-22T04:52:53;10.00;99.90
19437;DHT22;9854;50.968;4.168;2023-04-22T04:55:19;10.50;99.90
19437;DHT22;9854;50.968;4.168;2023-04-22T04:57:44;10.70;99.90
19437;DHT22;9854;50.968;4.168;2023-04-22T05:00:11;10.80;99.90
19437;DHT22;9854;50.968;4.168;2023-04-22T05:02:38;10.60;99.90
19437;DHT22;9854;50.968;4.168;2023-04-22T05:05:04;10.60;99.90
19437;DHT22;9854;50.968;4.168;2023-04-22T05:07:30;10.60;99.90
19437;DHT22;9854;50.968;4.168;2023-04-22T05:09:55;10.60;99.90
19437;DHT22;9854;50.968;4.168;2023-04-22T05:12:21;10.30;99.90
19437;DHT22;9854;50.968;4.168;2023-04-22T05:14:47;10.00;99.90
19437;DHT22;9854;50.968;4.168;2023-04-22T05:17:12;10.00;99.90
19437;DHT22;9854;50.968;4.168;2023-04-22T05:19:38;9.80;99.90
19437;DHT22;9854;50.968;4.168;2023-04-22T05:22:05;9.70;99.90
19437;DHT22;9854;50.968;4.168;2023-04-22T05:24:31;9.80;99.90
19437;DHT22;9854;50.968;4.168;2023-04-22T05:26:57;9.80;99.90
19437;DHT22;9854;50.968;4.168;2023-04-22T05:29:22;9.80;99.90
19437;DHT22;9854;50.968;4.168;2023-04-22T05:31:48;9.90;99.90
19437;DHT22;9854;50.968;4.168;2023-04-22T05:34:14;10.00;99.90
19437;DHT22;9854;50.968;4.168;2023-04-22T05:36:39;10.00;99.90
19437;DHT22;9854;50.968;4.168;2023-04-22T05:39:06;10.00;99.90
19437;DHT22;9854;50.968;4.168;2023-04-22T05:41:31;10.00;99.90
19437;DHT22;9854;50.968;4.168;2023-04-22T05:43:57;10.10;99.90
19437;DHT22;9854;50.968;4.168;2023-04-22T05:46:23;10.10;99.90
19437;DHT22;9854;50.968;4.168;2023-04-22T05:48:48;10.20;99.90
19437;DHT22;9854;50.968;4.168;2023-04-22T05:51:14;10.10;99.90
19437;DHT22;9854;50.968;4.168;2023-04-22T05:53:40;10.30;99.90
19437;DHT22;9854;50.968;4.168;2023-04-22T05:56:05;10.50;99.90
19437;DHT22;9854;50.968;4.168;2023-04-22T05:58:31;10.80;99.90
19437;DHT22;9854;50.968;4.168;2023-04-22T06:00:56;10.80;99.90
19437;DHT22;9854;50.968;4.168;2023-04-22T06:03:22;11.00;99.90
19437;DHT22;9854;50.968;4.168;2023-04-22T06:05:48;11.10;99.90
19437;DHT22;9854;50.968;4.168;2023-04-22T06:08:13;11.00;99.90
19437;DHT22;9854;50.968;4.168;2023-04-22T06:10:39;11.00;99.90
19437;DHT22;9854;50.968;4.168;2023-04-22T06:13:05;10.90;99.90
19437;DHT22;9854;50.968;4.168;2023-04-22T06:15:31;10.90;99.90
19437;DHT22;9854;50.968;4.168;2023-04-22T06:17:58;11.00;99.90
19437;DHT22;9854;50.968;4.168;2023-04-22T06:20:24;11.10;99.90
19437;DHT22;9854;50.968;4.168;2023-04-22T06:22:50;11.50;99.90
19437;DHT22;9854;50.968;4.168;2023-04-22T06:25:16;11.40;99.90
19437;DHT22;9854;50.968;4.168;2023-04-22T06:27:41;11.40;99.90
19437;DHT22;9854;50.968;4.168;2023-04-22T06:30:07;11.40;99.90
19437;DHT22;9854;50.968;4.168;2023-04-22T06:32:34;11.50;99.90
19437;DHT22;9854;50.968;4.168;2023-04-22T06:35:00;11.60;99.90
19437;DHT22;9854;50.968;4.168;2023-04-22T06:37:25;11.70;99.90
19437;DHT22;9854;50.968;4.168;2023-04-22T06:39:51;11.90;99.90
19437;DHT22;9854;50.968;4.168;2023-04-22T06:42:17;11.90;99.90
19437;DHT22;9854;50.968;4.168;2023-04-22T06:44:42;12.00;99.90
19437;DHT22;9854;50.968;4.168;2023-04-22T06:47:08;12.20;99.90
19437;DHT22;9854;50.968;4.168;2023-04-22T06:49:33;12.30;99.90
19437;DHT22;9854;50.968;4.168;2023-04-22T06:52:03;12.40;99.90
19437;DHT22;9854;50.968;4.168;2023-04-22T06:54:28;12.70;99.90
19437;DHT22;9854;50.968;4.168;2023-04-22T06:56:54;12.70;99.90
19437;DHT22;9854;50.968;4.168;2023-04-22T06:59:20;12.60;99.90
19437;DHT22;9854;50.968;4.168;2023-04-22T07:01:45;12.70;99.90
19437;DHT22;9854;50.968;4.168;2023-04-22T07:04:11;12.70;99.90
19437;DHT22;9854;50.968;4.168;2023-04-22T07:06:37;12.90;99.90
19437;DHT22;9854;50.968;4.168;2023-04-22T07:09:02;12.90;99.90
19437;DHT22;9854;50.968;4.168;2023-04-22T07:11:28;12.80;99.90
19437;DHT22;9854;50.968;4.168;2023-04-22T07:13:56;12.80;99.90
19437;DHT22;9854;50.968;4.168;2023-04-22T07:16:22;12.80;99.90
19437;DHT22;9854;50.968;4.168;2023-04-22T07:18:47;12.90;99.90
19437;DHT22;9854;50.968;4.168;2023-04-22T07:21:13;12.90;99.90
19437;DHT22;9854;50.968;4.168;2023-04-22T07:23:39;12.70;99.90
19437;DHT22;9854;50.968;4.168;2023-04-22T07:26:04;12.70;99.90
19437;DHT22;9854;50.968;4.168;2023-04-22T07:28:30;12.90;99.90
19437;DHT22;9854;50.968;4.168;2023-04-22T07:30:56;12.90;99.90
19437;DHT22;9854;50.968;4.168;2023-04-22T07:33:22;13.10;99.90
19437;DHT22;9854;50.968;4.168;2023-04-22T07:35:47;13.20;99.90
19437;DHT22;9854;50.968;4.168;2023-04-22T07:38:13;13.40;99.90
19437;DHT22;9854;50.968;4.168;2023-04-22T07:40:39;13.60;99.90
19437;DHT22;9854;50.968;4.168;2023-04-22T07:43:05;13.60;99.90
19437;DHT22;9854;50.968;4.168;2023-04-22T07:45:31;13.70;99.90
19437;DHT22;9854;50.968;4.168;2023-04-22T07:47:57;13.90;99.90
19437;DHT22;9854;50.968;4.168;2023-04-22T07:50:23;14.10;99.90
19437;DHT22;9854;50.968;4.168;2023-04-22T07:52:49;14.10;99.90
19437;DHT22;9854;50.968;4.168;2023-04-22T07:55:15;14.40;99.90
19437;DHT22;9854;50.968;4.168;2023-04-22T07:57:40;14.30;99.90
19437;DHT22;9854;50.968;4.168;2023-04-22T08:00:08;14.20;99.90
19437;DHT22;9854;50.968;4.168;2023-04-22T08:02:34;14.20;99.90
19437;DHT22;9854;50.968;4.168;2023-04-22T08:04:59;14.40;99.90
19437;DHT22;9854;50.968;4.168;2023-04-22T08:07:25;14.70;99.90
19437;DHT22;9854;50.968;4.168;2023-04-22T08:09:51;14.70;99.90
19437;DHT22;9854;50.968;4.168;2023-04-22T08:12:17;15.00;99.90
19437;DHT22;9854;50.968;4.168;2023-04-22T08:14:43;15.10;99.90
19437;DHT22;9854;50.968;4.168;2023-04-22T08:17:09;15.20;99.90
19437;DHT22;9854;50.968;4.168;2023-04-22T08:19:34;15.10;99.90
19437;DHT22;9854;50.968;4.168;2023-04-22T08:22:00;15.30;99.90
19437;DHT22;9854;50.968;4.168;2023-04-22T08:24:26;15.30;99.90
19437;DHT22;9854;50.968;4.168;2023-04-22T08:26:51;15.30;99.90
19437;DHT22;9854;50.968;4.168;2023-04-22T08:29:17;15.10;99.90
19437;DHT22;9854;50.968;4.168;2023-04-22T08:31:43;15.20;99.90
19437;DHT22;9854;50.968;4.168;2023-04-22T08:34:08;15.30;99.90
19437;DHT22;9854;50.968;4.168;2023-04-22T08:36:34;15.40;99.90
19437;DHT22;9854;50.968;4.168;2023-04-22T08:39:00;15.50;99.90
19437;DHT22;9854;50.968;4.168;2023-04-22T08:41:26;15.50;99.90
19437;DHT22;9854;50.968;4.168;2023-04-22T08:43:52;15.70;99.90
19437;DHT22;9854;50.968;4.168;2023-04-22T08:46:18;15.70;99.90
19437;DHT22;9854;50.968;4.168;2023-04-22T08:48:46;16.00;99.90
19437;DHT22;9854;50.968;4.168;2023-04-22T08:51:14;16.30;99.90
19437;DHT22;9854;50.968;4.168;2023-04-22T08:53:42;16.30;99.90
19437;DHT22;9854;50.968;4.168;2023-04-22T08:56:07;16.60;99.90
19437;DHT22;9854;50.968;4.168;2023-04-22T08:58:34;16.50;99.90
19437;DHT22;9854;50.968;4.168;2023-04-22T09:01:00;16.60;99.90
19437;DHT22;9854;50.968;4.168;2023-04-22T09:03:27;16.50;99.90
19437;DHT22;9854;50.968;4.168;2023-04-22T09:05:54;16.50;99.90
19437;DHT22;9854;50.968;4.168;2023-04-22T09:08:20;16.20;99.90
19437;DHT22;9854;50.968;4.168;2023-04-22T09:10:46;16.10;99.90
19437;DHT22;9854;50.968;4.168;2023-04-22T09:13:12;16.00;99.90
19437;DHT22;9854;50.968;4.168;2023-04-22T09:15:38;16.00;99.90
19437;DHT22;9854;50.968;4.168;2023-04-22T09:18:04;16.00;99.90
19437;DHT22;9854;50.968;4.168;2023-04-22T09:20:30;16.00;99.90
19437;DHT22;9854;50.968;4.168;2023-04-22T09:22:57;15.90;99.90
19437;DHT22;9854;50.968;4.168;2023-04-22T09:25:26;15.80;99.90
19437;DHT22;9854;50.968;4.168;2023-04-22T09:27:57;15.60;99.90
19437;DHT22;9854;50.968;4.168;2023-04-22T09:30:25;15.80;99.90
19437;DHT22;9854;50.968;4.168;2023-04-22T09:32:59;16.10;99.90
19437;DHT22;9854;50.968;4.168;2023-04-22T09:35:36;16.30;99.90
19437;DHT22;9854;50.968;4.168;2023-04-22T09:38:06;16.20;99.90
19437;DHT22;9854;50.968;4.168;2023-04-22T09:40:37;15.50;99.90
19437;DHT22;9854;50.968;4.168;2023-04-22T09:43:05;14.80;99.90
19437;DHT22;9854;50.968;4.168;2023-04-22T09:45:32;14.60;99.90
19437;DHT22;9854;50.968;4.168;2023-04-22T09:48:08;14.30;99.90
19437;DHT22;9854;50.968;4.168;2023-04-22T09:50:36;14.10;99.90
19437;DHT22;9854;50.968;4.168;2023-04-22T09:53:06;13.80;99.90
19437;DHT22;9854;50.968;4.168;2023-04-22T09:55:35;13.60;99.90
19437;DHT22;9854;50.968;4.168;2023-04-22T09:58:07;13.50;99.90
19437;DHT22;9854;50.968;4.168;2023-04-22T10:00:34;13.20;99.90
19437;DHT22;9854;50.968;4.168;2023-04-22T10:03:02;13.10;99.90
19437;DHT22;9854;50.968;4.168;2023-04-22T10:05:28;13.00;99.90
19437;DHT22;9854;50.968;4.168;2023-04-22T10:07:54;13.00;99.90
19437;DHT22;9854;50.968;4.168;2023-04-22T10:10:19;12.70;99.90
19437;DHT22;9854;50.968;4.168;2023-04-22T10:12:46;12.60;99.90
19437;DHT22;9854;50.968;4.168;2023-04-22T10:15:13;12.30;99.90
19437;DHT22;9854;50.968;4.168;2023-04-22T10:17:39;12.30;99.90
19437;DHT22;9854;50.968;4.168;2023-04-22T10:20:11;12.40;99.90
19437;DHT22;9854;50.968;4.168;2023-04-22T10:22:41;12.30;99.90
19437;DHT22;9854;50.968;4.168;2023-04-22T10:25:11;12.30;99.90
19437;DHT22;9854;50.968;4.168;2023-04-22T10:27:38;12.50;99.90
19437;DHT22;9854;50.968;4.168;2023-04-22T10:30:04;12.20;99.90
19437;DHT22;9854;50.968;4.168;2023-04-22T10:32:31;12.20;99.90
19437;DHT22;9854;50.968;4.168;2023-04-22T10:35:11;12.20;99.90
19437;DHT22;9854;50.968;4.168;2023-04-22T10:37:40;12.20;99.90
19437;DHT22;9854;50.968;4.168;2023-04-22T10:40:16;12.20;99.90
19437;DHT22;9854;50.968;4.168;2023-04-22T10:42:48;12.30;99.90
19437;DHT22;9854;50.968;4.168;2023-04-22T10:45:14;12.60;99.90
19437;DHT22;9854;50.968;4.168;2023-04-22T10:47:40;12.70;99.90
19437;DHT22;9854;50.968;4.168;2023-04-22T10:50:19;12.80;99.90
19437;DHT22;9854;50.968;4.168;2023-04-22T10:52:51;12.80;99.90
19437;DHT22;9854;50.968;4.168;2023-04-22T10:55:18;12.90;99.90
19437;DHT22;9854;50.968;4.168;2023-04-22T10:57:45;12.80;99.90
19437;DHT22;9854;50.968;4.168;2023-04-22T11:03:09;13.00;99.90
19437;DHT22;9854;50.968;4.168;2023-04-22T11:05:35;13.10;99.90
19437;DHT22;9854;50.968;4.168;2023-04-22T11:08:04;13.10;99.90
19437;DHT22;9854;50.968;4.168;2023-04-22T11:10:34;12.90;99.90
19437;DHT22;9854;50.968;4.168;2023-04-22T11:13:02;12.60;99.90
19437;DHT22;9854;50.968;4.168;2023-04-22T11:15:29;12.40;99.90
19437;DHT22;9854;50.968;4.168;2023-04-22T11:17:56;12.40;99.90
19437;DHT22;9854;50.968;4.168;2023-04-22T11:20:23;12.30;99.90
19437;DHT22;9854;50.968;4.168;2023-04-22T11:22:56;12.20;99.90
19437;DHT22;9854;50.968;4.168;2023-04-22T11:25:23;12.20;99.90
19437;DHT22;9854;50.968;4.168;2023-04-22T11:27:49;12.20;99.90
19437;DHT22;9854;50.968;4.168;2023-04-22T11:30:20;12.30;99.90
19437;DHT22;9854;50.968;4.168;2023-04-22T11:32:51;12.50;99.90
19437;DHT22;9854;50.968;4.168;2023-04-22T11:35:30;12.90;99.90
19437;DHT22;9854;50.968;4.168;2023-04-22T11:38:01;13.50;99.90
19437;DHT22;9854;50.968;4.168;2023-04-22T11:42:53;13.30;99.90
19437;DHT22;9854;50.968;4.168;2023-04-22T11:45:19;13.30;99.90
19437;DHT22;9854;50.968;4.168;2023-04-22T11:47:45;13.60;99.90
19437;DHT22;9854;50.968;4.168;2023-04-22T11:50:12;13.40;99.90
19437;DHT22;9854;50.968;4.168;2023-04-22T11:55:18;13.30;99.90
19437;DHT22;9854;50.968;4.168;2023-04-22T11:57:44;13.30;99.90
19437;DHT22;9854;50.968;4.168;2023-04-22T12:00:13;13.20;99.90
19437;DHT22;9854;50.968;4.168;2023-04-22T12:02:41;13.20;99.90
19437;DHT22;9854;50.968;4.168;2023-04-22T12:05:10;13.20;99.90
19437;DHT22;9854;50.968;4.168;2023-04-22T12:07:41;13.20;99.90
19437;DHT22;9854;50.968;4.168;2023-04-22T12:10:07;13.20;99.90
19437;DHT22;9854;50.968;4.168;2023-04-22T12:12:33;13.30;99.90
19437;DHT22;9854;50.968;4.168;2023-04-22T12:15:11;13.40;99.90
19437;DHT22;9854;50.968;4.168;2023-04-22T12:17:39;13.20;99.90
19437;DHT22;9854;50.968;4.168;2023-04-22T12:20:05;13.20;99.90
19437;DHT22;9854;50.968;4.168;2023-04-22T12:22:32;13.40;99.90
19437;DHT22;9854;50.968;4.168;2023-04-22T12:25:00;13.50;99.90
19437;DHT22;9854;50.968;4.168;2023-04-22T12:27:26;13.50;99.90
19437;DHT22;9854;50.968;4.168;2023-04-22T12:29:55;13.40;99.90
19437;DHT22;9854;50.968;4.168;2023-04-22T12:32:24;13.40;99.90
19437;DHT22;9854;50.968;4.168;2023-04-22T12:34:50;13.20;99.90
19437;DHT22;9854;50.968;4.168;2023-04-22T12:37:17;13.10;99.90
19437;DHT22;9854;50.968;4.168;2023-04-22T12:39:46;13.20;99.90
19437;DHT22;9854;50.968;4.168;2023-04-22T12:42:11;13.40;99.90
19437;DHT22;9854;50.968;4.168;2023-04-22T12:44:37;13.60;99.90
19437;DHT22;9854;50.968;4.168;2023-04-22T12:47:03;13.70;99.90
19437;DHT22;9854;50.968;4.168;2023-04-22T12:49:29;13.70;99.90
19437;DHT22;9854;50.968;4.168;2023-04-22T12:51:54;13.80;99.90
19437;DHT22;9854;50.968;4.168;2023-04-22T12:54:21;13.90;99.90
19437;DHT22;9854;50.968;4.168;2023-04-22T12:56:47;13.40;99.90
19437;DHT22;9854;50.968;4.168;2023-04-22T12:59:13;12.90;99.90
19437;DHT22;9854;50.968;4.168;2023-04-22T13:01:39;12.80;99.90
19437;DHT22;9854;50.968;4.168;2023-04-22T13:04:05;12.50;99.90
19437;DHT22;9854;50.968;4.168;2023-04-22T13:06:30;12.50;99.90
19437;DHT22;9854;50.968;4.168;2023-04-22T13:08:57;12.50;99.90
19437;DHT22;9854;50.968;4.168;2023-04-22T13:11:23;12.70;99.90
19437;DHT22;9854;50.968;4.168;2023-04-22T13:13:49;12.70;99.90
19437;DHT22;9854;50.968;4.168;2023-04-22T13:16:16;12.90;99.90
19437;DHT22;9854;50.968;4.168;2023-04-22T13:18:42;12.70;99.90
19437;DHT22;9854;50.968;4.168;2023-04-22T13:21:07;12.70;99.90
19437;DHT22;9854;50.968;4.168;2023-04-22T13:23:33;12.80;99.90
19437;DHT22;9854;50.968;4.168;2023-04-22T13:25:59;12.90;99.90
19437;DHT22;9854;50.968;4.168;2023-04-22T13:28:25;12.80;99.90
19437;DHT22;9854;50.968;4.168;2023-04-22T13:30:51;12.70;99.90
19437;DHT22;9854;50.968;4.168;2023-04-22T13:33:17;12.50;99.90
19437;DHT22;9854;50.968;4.168;2023-04-22T13:35:42;12.50;99.90
19437;DHT22;9854;50.968;4.168;2023-04-22T13:38:08;12.50;99.90
19437;DHT22;9854;50.968;4.168;2023-04-22T13:40:34;12.70;99.90
19437;DHT22;9854;50.968;4.168;2023-04-22T13:42:59;12.60;99.90
19437;DHT22;9854;50.968;4.168;2023-04-22T13:45:25;12.60;99.90
19437;DHT22;9854;50.968;4.168;2023-04-22T13:47:52;12.70;99.90
19437;DHT22;9854;50.968;4.168;2023-04-22T13:50:18;12.70;99.90
19437;DHT22;9854;50.968;4.168;2023-04-22T13:52:43;12.60;99.90
19437;DHT22;9854;50.968;4.168;2023-04-22T13:55:09;12.50;99.90
19437;DHT22;9854;50.968;4.168;2023-04-22T13:57:35;12.50;99.90
19437;DHT22;9854;50.968;4.168;2023-04-22T14:00:00;12.40;99.90
19437;DHT22;9854;50.968;4.168;2023-04-22T14:02:26;12.10;99.90
19437;DHT22;9854;50.968;4.168;2023-04-22T14:04:52;11.90;99.90
19437;DHT22;9854;50.968;4.168;2023-04-22T14:07:17;11.80;99.90
19437;DHT22;9854;50.968;4.168;2023-04-22T14:09:43;11.70;99.90
19437;DHT22;9854;50.968;4.168;2023-04-22T14:12:09;11.60;99.90
19437;DHT22;9854;50.968;4.168;2023-04-22T14:14:35;11.50;99.90
19437;DHT22;9854;50.968;4.168;2023-04-22T14:17:01;11.40;99.90
19437;DHT22;9854;50.968;4.168;2023-04-22T14:19:27;11.30;99.90
19437;DHT22;9854;50.968;4.168;2023-04-22T14:21:54;11.10;99.90
19437;DHT22;9854;50.968;4.168;2023-04-22T14:24:20;11.00;99.90
19437;DHT22;9854;50.968;4.168;2023-04-22T14:26:47;10.90;99.90
19437;DHT22;9854;50.968;4.168;2023-04-22T14:29:13;10.90;99.90
19437;DHT22;9854;50.968;4.168;2023-04-22T14:31:39;10.90;99.90
19437;DHT22;9854;50.968;4.168;2023-04-22T14:34:05;10.80;99.90
19437;DHT22;9854;50.968;4.168;2023-04-22T14:36:30;10.90;99.90
19437;DHT22;9854;50.968;4.168;2023-04-22T14:38:56;11.00;99.90
19437;DHT22;9854;50.968;4.168;2023-04-22T14:41:22;11.00;99.90
19437;DHT22;9854;50.968;4.168;2023-04-22T14:43:48;11.10;99.90
19437;DHT22;9854;50.968;4.168;2023-04-22T14:46:13;11.20;99.90
19437;DHT22;9854;50.968;4.168;2023-04-22T14:48:39;11.20;99.90
19437;DHT22;9854;50.968;4.168;2023-04-22T14:51:05;11.30;99.90
19437;DHT22;9854;50.968;4.168;2023-04-22T14:53:31;11.20;99.90
19437;DHT22;9854;50.968;4.168;2023-04-22T14:55:57;11.10;99.90
19437;DHT22;9854;50.968;4.168;2023-04-22T14:58:22;11.20;99.90
19437;DHT22;9854;50.968;4.168;2023-04-22T15:00:49;11.20;99.90
19437;DHT22;9854;50.968;4.168;2023-04-22T15:03:15;11.30;99.90
19437;DHT22;9854;50.968;4.168;2023-04-22T15:05:41;11.40;99.90
19437;DHT22;9854;50.968;4.168;2023-04-22T15:08:07;11.40;99.90
19437;DHT22;9854;50.968;4.168;2023-04-22T15:10:33;11.50;99.90
19437;DHT22;9854;50.968;4.168;2023-04-22T15:12:58;11.70;99.90
19437;DHT22;9854;50.968;4.168;2023-04-22T15:15:25;12.00;99.90
19437;DHT22;9854;50.968;4.168;2023-04-22T15:17:50;12.50;99.90
19437;DHT22;9854;50.968;4.168;2023-04-22T15:20:16;12.90;99.90
19437;DHT22;9854;50.968;4.168;2023-04-22T15:22:42;13.20;99.90
19437;DHT22;9854;50.968;4.168;2023-04-22T15:25:09;13.50;99.90
19437;DHT22;9854;50.968;4.168;2023-04-22T15:27:36;13.50;99.90
19437;DHT22;9854;50.968;4.168;2023-04-22T15:30:03;13.70;99.90
19437;DHT22;9854;50.968;4.168;2023-04-22T15:32:30;14.00;99.90
19437;DHT22;9854;50.968;4.168;2023-04-22T15:34:56;14.40;99.90
19437;DHT22;9854;50.968;4.168;2023-04-22T15:37:21;14.80;99.90
19437;DHT22;9854;50.968;4.168;2023-04-22T15:39:47;15.00;99.90
19437;DHT22;9854;50.968;4.168;2023-04-22T15:42:13;15.10;99.90
19437;DHT22;9854;50.968;4.168;2023-04-22T15:44:41;15.10;99.90
19437;DHT22;9854;50.968;4.168;2023-04-22T15:47:07;15.00;99.90
19437;DHT22;9854;50.968;4.168;2023-04-22T15:49:35;14.50;99.90
19437;DHT22;9854;50.968;4.168;2023-04-22T15:52:03;14.30;99.90